sensor_id;sensor_type;location;lat;lon;timestamp;pressure;altitude;pressure_sealevel;temperature;humidity
9839;BME280;4958;48.150;11.506;2023-09-18T00:01:43;95038.59;;;22.14;69.52
9839;BME280;4958;48.150;11.506;2023-09-18T00:04:09;95037.56;;;22.15;69.56
9839;BME280;4958;48.150;11.506;2023-09-18T00:06:37;95017.09;;;22.22;69.19
9839;BME280;4958;48.150;11.506;2023-09-18T00:09:04;95003.47;;;22.25;68.48
9839;BME280;4958;48.150;11.506;2023-09-18T00:11:32;94997.97;;;22.32;68.47
9839;BME280;4958;48.150;11.506;2023-09-18T00:13:58;94981.41;;;22.36;67.90
9839;BME280;4958;48.150;11.506;2023-09-18T00:16:25;94986.16;;;22.29;68.24
9839;BME280;4958;48.150;11.506;2023-09-18T00:18:52;94991.41;;;22.29;68.44
9839;BME280;4958;48.150;11.506;2023-09-18T00:21:18;94979.06;;;22.25;68.11
9839;BME280;4958;48.150;11.506;2023-09-18T00:23:46;94969.91;;;22.17;67.91
9839;BME280;4958;48.150;11.506;2023-09-18T00:26:12;94980.94;;;22.09;68.64
9839;BME280;4958;48.150;11.506;2023-09-18T00:28:39;94978.31;;;22.09;68.65
9839;BME280;4958;48.150;11.506;2023-09-18T00:31:05;94966.50;;;22.07;68.55
9839;BME280;4958;48.150;11.506;2023-09-18T00:33:32;94959.91;;;21.99;68.73
9839;BME280;4958;48.150;11.506;2023-09-18T00:35:59;94951.28;;;21.93;68.57
9839;BME280;4958;48.150;11.506;2023-09-18T00:38:25;94954.41;;;21.85;69.02
9839;BME280;4958;48.150;11.506;2023-09-18T00:40:53;94949.69;;;21.82;68.81
9839;BME280;4958;48.150;11.506;2023-09-18T00:43:19;94963.84;;;21.81;69.09
9839;BME280;4958;48.150;11.506;2023-09-18T00:45:47;94955.19;;;21.76;68.90
9839;BME280;4958;48.150;11.506;2023-09-18T00:48:15;94964.09;;;21.64;69.00
9839;BME280;4958;48.150;11.506;2023-09-18T00:50:44;94944.97;;;21.64;68.51
9839;BME280;4958;48.150;11.506;2023-09-18T00:53:13;94945.00;;;21.69;68.38
9839;BME280;4958;48.150;11.506;2023-09-18T00:55:41;94926.91;;;21.73;67.53
9839;BME280;4958;48.150;11.506;2023-09-18T00:58:09;94904.91;;;21.74;67.30
9839;BME280;4958;48.150;11.506;2023-09-18T01:00:36;94893.34;;;21.80;67.18
9839;BME280;4958;48.150;11.506;2023-09-18T01:03:04;94876.56;;;21.81;66.51
9839;BME280;4958;48.150;11.506;2023-09-18T01:05:31;94852.72;;;21.82;66.21
9839;BME280;4958;48.150;11.506;2023-09-18T01:07:58;94865.56;;;21.79;66.25
9839;BME280;4958;48.150;11.506;2023-09-18T01:10:31;94848.28;;;21.88;66.05
9839;BME280;4958;48.150;11.506;2023-09-18T01:13:02;94832.53;;;21.93;65.70
9839;BME280;4958;48.150;11.506;2023-09-18T01:15:35;94823.34;;;21.95;65.57
9839;BME280;4958;48.150;11.506;2023-09-18T01:18:03;94842.50;;;21.91;65.59
9839;BME280;4958;48.150;11.506;2023-09-18T01:20:29;94843.03;;;21.93;65.57
9839;BME280;4958;48.150;11.506;2023-09-18T01:22:57;94836.47;;;21.90;65.45
9839;BME280;4958;48.150;11.506;2023-09-18T01:25:23;94833.34;;;21.93;64.91
9839;BME280;4958;48.150;11.506;2023-09-18T01:27:50;94833.81;;;21.95;65.67
9839;BME280;4958;48.150;11.506;2023-09-18T01:30:17;94828.09;;;21.93;65.04
9839;BME280;4958;48.150;11.506;2023-09-18T01:32:44;94822.03;;;21.98;65.21
9839;BME280;4958;48.150;11.506;2023-09-18T01:35:12;94826.50;;;22.02;65.05
9839;BME280;4958;48.150;11.506;2023-09-18T01:37:40;94829.09;;;21.97;65.02
9839;BME280;4958;48.150;11.506;2023-09-18T01:40:08;94831.47;;;21.94;65.32
9839;BME280;4958;48.150;11.506;2023-09-18T01:42:36;94839.31;;;21.94;65.64
9839;BME280;4958;48.150;11.506;2023-09-18T01:45:04;94811.81;;;21.96;64.96
9839;BME280;4958;48.150;11.506;2023-09-18T01:47:31;94856.66;;;21.80;66.25
9839;BME280;4958;48.150;11.506;2023-09-18T01:49:57;94838.56;;;21.78;66.04
9839;BME280;4958;48.150;11.506;2023-09-18T01:52:24;94830.22;;;21.71;66.30
9839;BME280;4958;48.150;11.506;2023-09-18T01:54:50;94806.91;;;21.64;65.72
9839;BME280;4958;48.150;11.506;2023-09-18T01:57:18;94800.59;;;21.70;65.64
9839;BME280;4958;48.150;11.506;2023-09-18T01:59:45;94797.97;;;21.76;65.26
9839;BME280;4958;48.150;11.506;2023-09-18T02:02:11;94809.22;;;21.81;65.39
9839;BME280;4958;48.150;11.506;2023-09-18T02:04:38;94778.56;;;21.82;64.45
9839;BME280;4958;48.150;11.506;2023-09-18T02:07:05;94786.16;;;21.83;65.04
9839;BME280;4958;48.150;11.506;2023-09-18T02:09:32;94808.44;;;21.86;65.41
9839;BME280;4958;48.150;11.506;2023-09-18T02:11:58;94816.28;;;21.81;65.79
9839;BME280;4958;48.150;11.506;2023-09-18T02:14:26;94773.84;;;21.79;65.02
9839;BME280;4958;48.150;11.506;2023-09-18T02:16:55;94775.69;;;21.78;64.88
9839;BME280;4958;48.150;11.506;2023-09-18T02:19:22;94756.81;;;21.76;64.23
9839;BME280;4958;48.150;11.506;2023-09-18T02:21:48;94757.31;;;21.83;64.26
9839;BME280;4958;48.150;11.506;2023-09-18T02:24:15;94738.97;;;21.83;63.94
9839;BME280;4958;48.150;11.506;2023-09-18T02:26:41;94743.19;;;21.84;63.92
9839;BME280;4958;48.150;11.506;2023-09-18T02:29:08;94740.81;;;21.88;64.18
9839;BME280;4958;48.150;11.506;2023-09-18T02:31:38;94714.09;;;21.86;63.26
9839;BME280;4958;48.150;11.506;2023-09-18T02:34:04;94716.72;;;21.81;63.65
9839;BME280;4958;48.150;11.506;2023-09-18T02:36:31;94736.38;;;21.83;64.04
9839;BME280;4958;48.150;11.506;2023-09-18T02:38:57;94753.13;;;21.87;64.13
9839;BME280;4958;48.150;11.506;2023-09-18T02:41:23;94737.69;;;21.76;64.04
9839;BME280;4958;48.150;11.506;2023-09-18T02:43:50;94752.88;;;21.79;64.44
9839;BME280;4958;48.150;11.506;2023-09-18T02:46:16;94786.19;;;21.68;65.58
9839;BME280;4958;48.150;11.506;2023-09-18T02:48:44;94754.00;;;21.47;65.41
9839;BME280;4958;48.150;11.506;2023-09-18T02:51:11;94781.25;;;21.26;65.96
9839;BME280;4958;48.150;11.506;2023-09-18T02:53:37;94782.53;;;21.08;66.22
9839;BME280;4958;48.150;11.506;2023-09-18T02:56:04;94799.56;;;20.95;66.85
9839;BME280;4958;48.150;11.506;2023-09-18T02:58:30;94803.75;;;21.07;66.75
9839;BME280;4958;48.150;11.506;2023-09-18T03:00:57;94761.88;;;21.12;65.59
9839;BME280;4958;48.150;11.506;2023-09-18T03:03:25;94768.41;;;21.04;65.73
9839;BME280;4958;48.150;11.506;2023-09-18T03:05:53;94797.19;;;21.04;66.78
9839;BME280;4958;48.150;11.506;2023-09-18T03:08:26;94796.41;;;21.09;66.69
9839;BME280;4958;48.150;11.506;2023-09-18T03:10:52;94799.81;;;21.09;66.72
9839;BME280;4958;48.150;11.506;2023-09-18T03:13:19;94799.03;;;21.19;66.69
9839;BME280;4958;48.150;11.506;2023-09-18T03:15:45;94778.91;;;21.24;66.11
9839;BME280;4958;48.150;11.506;2023-09-18T03:18:13;94787.03;;;21.28;66.46
9839;BME280;4958;48.150;11.506;2023-09-18T03:20:40;94760.56;;;21.29;65.59
9839;BME280;4958;48.150;11.506;2023-09-18T03:23:08;94741.19;;;21.20;65.45
9839;BME280;4958;48.150;11.506;2023-09-18T03:25:35;94758.72;;;21.15;66.10
9839;BME280;4958;48.150;11.506;2023-09-18T03:28:03;94773.38;;;21.00;66.47
9839;BME280;4958;48.150;11.506;2023-09-18T03:30:29;94759.50;;;21.10;65.85
9839;BME280;4958;48.150;11.506;2023-09-18T03:32:56;94746.44;;;21.20;66.29
9839;BME280;4958;48.150;11.506;2023-09-18T03:35:22;94749.84;;;21.26;66.15
9839;BME280;4958;48.150;11.506;2023-09-18T03:37:50;94765.00;;;21.19;66.45
9839;BME280;4958;48.150;11.506;2023-09-18T03:40:18;94775.47;;;21.19;66.77
9839;BME280;4958;48.150;11.506;2023-09-18T03:42:46;94762.94;;;21.21;66.50
9839;BME280;4958;48.150;11.506;2023-09-18T03:45:13;94749.56;;;21.22;66.41
9839;BME280;4958;48.150;11.506;2023-09-18T03:47:41;94737.53;;;21.11;66.08
9839;BME280;4958;48.150;11.506;2023-09-18T03:50:08;94727.31;;;21.10;66.16
9839;BME280;4958;48.150;11.506;2023-09-18T03:52:36;94721.53;;;20.97;65.98
9839;BME280;4958;48.150;11.506;2023-09-18T03:55:04;94699.56;;;20.98;65.17
9839;BME280;4958;48.150;11.506;2023-09-18T03:57:32;94685.44;;;21.04;65.08
9839;BME280;4958;48.150;11.506;2023-09-18T03:59:58;94696.16;;;21.08;65.61
9839;BME280;4958;48.150;11.506;2023-09-18T04:02:25;94711.34;;;21.06;65.94
9839;BME280;4958;48.150;11.506;2023-09-18T04:04:53;94727.84;;;21.07;66.24
9839;BME280;4958;48.150;11.506;2023-09-18T04:07:20;94732.03;;;21.08;66.52
9839;BME280;4958;48.150;11.506;2023-09-18T04:09:46;94730.44;;;21.07;66.29
9839;BME280;4958;48.150;11.506;2023-09-18T04:12:13;94702.69;;;21.00;65.81
9839;BME280;4958;48.150;11.506;2023-09-18T04:14:40;94705.06;;;20.87;66.07
9839;BME280;4958;48.150;11.506;2023-09-18T04:17:07;94733.84;;;20.72;67.36
9839;BME280;4958;48.150;11.506;2023-09-18T04:19:33;94738.28;;;20.66;67.75
9839;BME280;4958;48.150;11.506;2023-09-18T04:22:00;94726.00;;;20.77;66.99
9839;BME280;4958;48.150;11.506;2023-09-18T04:24:26;94731.75;;;20.79;67.20
9839;BME280;4958;48.150;11.506;2023-09-18T04:26:53;94684.38;;;20.80;66.13
9839;BME280;4958;48.150;11.506;2023-09-18T04:29:19;94691.47;;;20.85;66.23
9839;BME280;4958;48.150;11.506;2023-09-18T04:31:47;94700.63;;;20.92;66.31
9839;BME280;4958;48.150;11.506;2023-09-18T04:34:14;94700.09;;;20.95;66.44
9839;BME280;4958;48.150;11.506;2023-09-18T04:36:40;94694.31;;;20.98;66.28
9839;BME280;4958;48.150;11.506;2023-09-18T04:39:09;94692.25;;;20.95;66.24
9839;BME280;4958;48.150;11.506;2023-09-18T04:41:35;94683.63;;;20.95;66.12
9839;BME280;4958;48.150;11.506;2023-09-18T04:44:02;94688.84;;;20.95;65.77
9839;BME280;4958;48.150;11.506;2023-09-18T04:46:30;94717.38;;;20.91;66.64
9839;BME280;4958;48.150;11.506;2023-09-18T04:48:58;94713.19;;;20.90;66.29
9839;BME280;4958;48.150;11.506;2023-09-18T04:51:24;94704.81;;;20.93;66.16
9839;BME280;4958;48.150;11.506;2023-09-18T04:53:50;94699.56;;;20.98;66.13
9839;BME280;4958;48.150;11.506;2023-09-18T04:56:17;94719.47;;;20.94;66.35
9839;BME280;4958;48.150;11.506;2023-09-18T04:58:44;94731.25;;;20.87;66.67
9839;BME280;4958;48.150;11.506;2023-09-18T05:01:11;94748.50;;;20.73;67.41
9839;BME280;4958;48.150;11.506;2023-09-18T05:03:37;94762.88;;;20.65;67.96
9839;BME280;4958;48.150;11.506;2023-09-18T05:06:05;94782.22;;;20.64;68.26
9839;BME280;4958;48.150;11.506;2023-09-18T05:08:32;94785.91;;;20.68;68.36
9839;BME280;4958;48.150;11.506;2023-09-18T05:10:58;94818.06;;;20.58;69.23
9839;BME280;4958;48.150;11.506;2023-09-18T05:13:24;94814.63;;;20.53;69.31
9839;BME280;4958;48.150;11.506;2023-09-18T05:15:51;94847.25;;;20.40;70.48
9839;BME280;4958;48.150;11.506;2023-09-18T05:18:17;94867.41;;;20.45;70.86
9839;BME280;4958;48.150;11.506;2023-09-18T05:20:44;94852.31;;;20.57;70.66
9839;BME280;4958;48.150;11.506;2023-09-18T05:23:11;94854.41;;;20.60;70.20
9839;BME280;4958;48.150;11.506;2023-09-18T05:25:38;94842.69;;;20.73;69.82
9839;BME280;4958;48.150;11.506;2023-09-18T05:28:07;94830.13;;;20.75;69.82
9839;BME280;4958;48.150;11.506;2023-09-18T05:30:35;94833.81;;;20.84;69.84
9839;BME280;4958;48.150;11.506;2023-09-18T05:33:04;94837.75;;;20.91;69.44
9839;BME280;4958;48.150;11.506;2023-09-18T05:35:31;94825.72;;;20.95;69.44
9839;BME280;4958;48.150;11.506;2023-09-18T05:37:58;94844.81;;;20.91;70.18
9839;BME280;4958;48.150;11.506;2023-09-18T05:40:26;94861.56;;;20.90;70.48
9839;BME280;4958;48.150;11.506;2023-09-18T05:42:54;94867.34;;;21.02;70.21
9839;BME280;4958;48.150;11.506;2023-09-18T05:45:20;94857.16;;;21.11;70.04
9839;BME280;4958;48.150;11.506;2023-09-18T05:47:47;94838.81;;;21.11;69.40
9839;BME280;4958;48.150;11.506;2023-09-18T05:50:14;94800.34;;;21.11;68.70
9839;BME280;4958;48.150;11.506;2023-09-18T05:52:42;94767.63;;;21.14;67.53
9839;BME280;4958;48.150;11.506;2023-09-18T05:55:09;94768.16;;;21.21;68.04
9839;BME280;4958;48.150;11.506;2023-09-18T05:57:37;94765.53;;;21.21;67.45
9839;BME280;4958;48.150;11.506;2023-09-18T06:00:05;94759.53;;;21.25;67.92
9839;BME280;4958;48.150;11.506;2023-09-18T06:02:31;94718.69;;;21.34;66.62
9839;BME280;4958;48.150;11.506;2023-09-18T06:04:59;94733.56;;;21.44;66.39
9839;BME280;4958;48.150;11.506;2023-09-18T06:07:26;94736.47;;;21.48;66.60
9839;BME280;4958;48.150;11.506;2023-09-18T06:09:53;94733.06;;;21.52;66.31
9839;BME280;4958;48.150;11.506;2023-09-18T06:12:20;94729.13;;;21.55;66.11
9839;BME280;4958;48.150;11.506;2023-09-18T06:14:48;94744.28;;;21.58;66.52
9839;BME280;4958;48.150;11.506;2023-09-18T06:17:15;94774.94;;;21.57;67.74
9839;BME280;4958;48.150;11.506;2023-09-18T06:19:42;94743.75;;;21.71;66.46
9839;BME280;4958;48.150;11.506;2023-09-18T06:22:08;94730.06;;;21.84;65.82
9839;BME280;4958;48.150;11.506;2023-09-18T06:24:35;94736.88;;;21.90;65.83
9839;BME280;4958;48.150;11.506;2023-09-18T06:27:02;94736.03;;;21.95;66.03
9839;BME280;4958;48.150;11.506;2023-09-18T06:29:29;94736.84;;;22.00;66.17
9839;BME280;4958;48.150;11.506;2023-09-18T06:31:57;94761.47;;;21.99;66.85
9839;BME280;4958;48.150;11.506;2023-09-18T06:34:23;94740.25;;;22.06;66.13
9839;BME280;4958;48.150;11.506;2023-09-18T06:36:50;94763.00;;;22.16;65.79
9839;BME280;4958;48.150;11.506;2023-09-18T06:39:16;94756.44;;;22.18;65.87
9839;BME280;4958;48.150;11.506;2023-09-18T06:41:42;94746.94;;;22.32;65.89
9839;BME280;4958;48.150;11.506;2023-09-18T06:44:09;94742.44;;;22.43;65.64
9839;BME280;4958;48.150;11.506;2023-09-18T06:46:35;94725.81;;;22.58;65.17
9839;BME280;4958;48.150;11.506;2023-09-18T06:49:05;94715.44;;;22.77;64.81
9839;BME280;4958;48.150;11.506;2023-09-18T06:51:31;94706.41;;;22.93;64.45
9839;BME280;4958;48.150;11.506;2023-09-18T06:53:58;94716.09;;;22.97;64.43
9839;BME280;4958;48.150;11.506;2023-09-18T06:56:27;94749.59;;;22.71;64.90
9839;BME280;4958;48.150;11.506;2023-09-18T06:58:54;94782.75;;;22.57;66.04
9839;BME280;4958;48.150;11.506;2023-09-18T07:01:20;94794.97;;;22.72;65.71
9839;BME280;4958;48.150;11.506;2023-09-18T07:03:47;94782.91;;;22.81;65.58
9839;BME280;4958;48.150;11.506;2023-09-18T07:06:16;94749.41;;;23.02;64.20
9839;BME280;4958;48.150;11.506;2023-09-18T07:08:45;94722.19;;;23.22;63.82
9839;BME280;4958;48.150;11.506;2023-09-18T07:11:12;94713.00;;;23.48;63.01
9839;BME280;4958;48.150;11.506;2023-09-18T07:13:38;94717.19;;;23.78;62.65
9839;BME280;4958;48.150;11.506;2023-09-18T07:16:06;94695.50;;;24.10;61.75
9839;BME280;4958;48.150;11.506;2023-09-18T07:18:32;94651.94;;;24.23;60.49
9839;BME280;4958;48.150;11.506;2023-09-18T07:20:58;94639.59;;;24.42;60.02
9839;BME280;4958;48.150;11.506;2023-09-18T07:23:26;94632.47;;;24.61;59.89
9839;BME280;4958;48.150;11.506;2023-09-18T07:25:53;94641.75;;;24.72;59.66
9839;BME280;4958;48.150;11.506;2023-09-18T07:28:19;94654.16;;;24.53;60.60
9839;BME280;4958;48.150;11.506;2023-09-18T07:30:46;94640.78;;;24.31;60.09
9839;BME280;4958;48.150;11.506;2023-09-18T07:33:14;94664.91;;;24.38;60.86
9839;BME280;4958;48.150;11.506;2023-09-18T07:35:45;94651.09;;;24.46;60.70
9839;BME280;4958;48.150;11.506;2023-09-18T07:38:12;94626.44;;;24.74;59.82
9839;BME280;4958;48.150;11.506;2023-09-18T07:40:40;94616.75;;;25.02;59.20
9839;BME280;4958;48.150;11.506;2023-09-18T07:43:06;94625.78;;;25.15;58.91
9839;BME280;4958;48.150;11.506;2023-09-18T07:45:33;94638.97;;;25.29;59.40
9839;BME280;4958;48.150;11.506;2023-09-18T07:48:00;94603.03;;;25.46;58.58
9839;BME280;4958;48.150;11.506;2023-09-18T07:50:26;94553.25;;;25.59;57.41
9839;BME280;4958;48.150;11.506;2023-09-18T07:52:53;94524.25;;;25.72;56.98
9839;BME280;4958;48.150;11.506;2023-09-18T07:55:19;94515.91;;;25.79;57.16
9839;BME280;4958;48.150;11.506;2023-09-18T07:57:47;94514.31;;;25.92;56.96
9839;BME280;4958;48.150;11.506;2023-09-18T08:00:15;94498.59;;;25.87;56.09
9839;BME280;4958;48.150;11.506;2023-09-18T08:02:41;94534.63;;;25.91;56.51
9839;BME280;4958;48.150;11.506;2023-09-18T08:05:08;94544.22;;;25.87;56.73
9839;BME280;4958;48.150;11.506;2023-09-18T08:07:35;94584.09;;;25.72;57.92
9839;BME280;4958;48.150;11.506;2023-09-18T08:10:02;94591.91;;;25.77;57.77
9839;BME280;4958;48.150;11.506;2023-09-18T08:12:31;94596.41;;;25.76;57.65
9839;BME280;4958;48.150;11.506;2023-09-18T08:14:59;94599.59;;;25.60;57.59
9839;BME280;4958;48.150;11.506;2023-09-18T08:17:26;94625.19;;;25.32;58.67
9839;BME280;4958;48.150;11.506;2023-09-18T08:19:52;94644.22;;;25.15;58.92
9839;BME280;4958;48.150;11.506;2023-09-18T08:22:19;94684.84;;;24.95;60.09
9839;BME280;4958;48.150;11.506;2023-09-18T08:24:46;94728.47;;;24.83;60.82
9839;BME280;4958;48.150;11.506;2023-09-18T08:27:13;94738.38;;;24.72;61.23
9839;BME280;4958;48.150;11.506;2023-09-18T08:29:42;94759.78;;;24.65;62.04
9839;BME280;4958;48.150;11.506;2023-09-18T08:32:09;94783.56;;;24.60;62.01
9839;BME280;4958;48.150;11.506;2023-09-18T08:34:36;94786.59;;;24.49;62.53
9839;BME280;4958;48.150;11.506;2023-09-18T08:37:03;94818.53;;;24.42;63.36
9839;BME280;4958;48.150;11.506;2023-09-18T08:39:29;94822.78;;;24.38;63.12
9839;BME280;4958;48.150;11.506;2023-09-18T08:41:59;94850.97;;;24.37;63.70
9839;BME280;4958;48.150;11.506;2023-09-18T08:44:28;94859.72;;;24.28;64.12
9839;BME280;4958;48.150;11.506;2023-09-18T08:46:56;94861.31;;;24.29;64.03
9839;BME280;4958;48.150;11.506;2023-09-18T08:49:24;94878.28;;;24.13;64.41
9839;BME280;4958;48.150;11.506;2023-09-18T08:51:54;94877.78;;;24.10;64.89
9839;BME280;4958;48.150;11.506;2023-09-18T08:54:21;94867.66;;;23.99;63.97
9839;BME280;4958;48.150;11.506;2023-09-18T08:56:49;94856.06;;;24.00;63.76
9839;BME280;4958;48.150;11.506;2023-09-18T08:59:15;94857.69;;;23.96;64.11
9839;BME280;4958;48.150;11.506;2023-09-18T09:01:42;94870.03;;;23.95;64.29
9839;BME280;4958;48.150;11.506;2023-09-18T09:04:09;94880.88;;;23.89;64.37
9839;BME280;4958;48.150;11.506;2023-09-18T09:06:37;94889.28;;;23.91;64.36
9839;BME280;4958;48.150;11.506;2023-09-18T09:09:03;94913.47;;;23.88;64.66
9839;BME280;4958;48.150;11.506;2023-09-18T09:11:30;94904.63;;;23.79;64.30
9839;BME280;4958;48.150;11.506;2023-09-18T09:14:09;94900.94;;;23.80;64.25
9839;BME280;4958;48.150;11.506;2023-09-18T09:16:38;94915.47;;;23.72;64.78
9839;BME280;4958;48.150;11.506;2023-09-18T09:19:05;94905.75;;;23.67;64.41
9839;BME280;4958;48.150;11.506;2023-09-18T09:21:40;94885.03;;;23.66;64.42
9839;BME280;4958;48.150;11.506;2023-09-18T09:24:09;94884.25;;;23.65;64.01
9839;BME280;4958;48.150;11.506;2023-09-18T09:26:39;94883.88;;;23.77;63.85
9839;BME280;4958;48.150;11.506;2023-09-18T09:29:15;94884.00;;;23.91;63.99
9839;BME280;4958;48.150;11.506;2023-09-18T09:31:43;94875.50;;;24.04;63.78
9839;BME280;4958;48.150;11.506;2023-09-18T09:34:10;94883.31;;;24.09;64.61
9839;BME280;4958;48.150;11.506;2023-09-18T09:36:52;94848.47;;;24.22;63.29
9839;BME280;4958;48.150;11.506;2023-09-18T09:39:19;94842.09;;;24.28;63.37
9839;BME280;4958;48.150;11.506;2023-09-18T09:41:47;94854.19;;;24.29;62.79
9839;BME280;4958;48.150;11.506;2023-09-18T09:44:13;94850.78;;;24.29;62.83
9839;BME280;4958;48.150;11.506;2023-09-18T09:46:45;94845.28;;;24.25;62.59
9839;BME280;4958;48.150;11.506;2023-09-18T09:49:12;94838.50;;;24.24;62.86
9839;BME280;4958;48.150;11.506;2023-09-18T09:51:41;94845.28;;;24.25;62.39
9839;BME280;4958;48.150;11.506;2023-09-18T09:54:10;94852.72;;;24.18;63.05
9839;BME280;4958;48.150;11.506;2023-09-18T09:56:42;94856.91;;;24.24;63.17
9839;BME280;4958;48.150;11.506;2023-09-18T09:59:10;94860.78;;;24.27;62.69
9839;BME280;4958;48.150;11.506;2023-09-18T10:01:38;94843.16;;;24.27;62.34
9839;BME280;4958;48.150;11.506;2023-09-18T10:04:09;94852.81;;;24.37;62.31
9839;BME280;4958;48.150;11.506;2023-09-18T10:06:37;94840.47;;;24.32;61.88
9839;BME280;4958;48.150;11.506;2023-09-18T10:09:06;94814.72;;;24.29;61.44
9839;BME280;4958;48.150;11.506;2023-09-18T10:11:41;94838.03;;;24.41;62.13
9839;BME280;4958;48.150;11.506;2023-09-18T10:14:12;94833.06;;;24.58;61.83
9839;BME280;4958;48.150;11.506;2023-09-18T10:16:41;94816.91;;;24.65;61.31
9839;BME280;4958;48.150;11.506;2023-09-18T10:19:14;94810.81;;;24.69;60.95
9839;BME280;4958;48.150;11.506;2023-09-18T10:21:49;94807.84;;;24.76;61.28
9839;BME280;4958;48.150;11.506;2023-09-18T10:24:22;94792.31;;;24.74;61.07
9839;BME280;4958;48.150;11.506;2023-09-18T10:26:55;94786.19;;;24.79;60.40
9839;BME280;4958;48.150;11.506;2023-09-18T10:29:24;94797.59;;;24.74;61.26
9839;BME280;4958;48.150;11.506;2023-09-18T10:31:51;94799.72;;;24.72;61.48
9839;BME280;4958;48.150;11.506;2023-09-18T10:34:19;94791.97;;;24.62;60.56
9839;BME280;4958;48.150;11.506;2023-09-18T10:36:47;94792.44;;;24.64;60.84
9839;BME280;4958;48.150;11.506;2023-09-18T10:39:14;94815.78;;;24.71;61.04
9839;BME280;4958;48.150;11.506;2023-09-18T10:41:46;94767.97;;;24.64;60.16
9839;BME280;4958;48.150;11.506;2023-09-18T10:44:15;94780.00;;;24.70;59.99
9839;BME280;4958;48.150;11.506;2023-09-18T10:46:43;94766.91;;;24.65;60.21
9839;BME280;4958;48.150;11.506;2023-09-18T10:49:09;94774.94;;;24.55;59.89
9839;BME280;4958;48.150;11.506;2023-09-18T10:51:37;94771.31;;;24.51;60.01
9839;BME280;4958;48.150;11.506;2023-09-18T10:54:07;94775.16;;;24.39;60.43
9839;BME280;4958;48.150;11.506;2023-09-18T10:56:34;94768.44;;;24.28;60.25
9839;BME280;4958;48.150;11.506;2023-09-18T10:59:01;94780.19;;;24.36;60.15
9839;BME280;4958;48.150;11.506;2023-09-18T11:01:30;94780.63;;;24.19;60.31
9839;BME280;4958;48.150;11.506;2023-09-18T11:03:58;94804.03;;;24.21;61.24
9839;BME280;4958;48.150;11.506;2023-09-18T11:06:26;94813.50;;;24.22;61.62
9839;BME280;4958;48.150;11.506;2023-09-18T11:09:00;94820.78;;;24.30;61.07
9839;BME280;4958;48.150;11.506;2023-09-18T11:11:29;94768.59;;;24.37;59.69
9839;BME280;4958;48.150;11.506;2023-09-18T11:13:58;94747.00;;;24.40;59.31
9839;BME280;4958;48.150;11.506;2023-09-18T11:16:36;94692.56;;;24.35;58.35
9839;BME280;4958;48.150;11.506;2023-09-18T11:19:08;94716.09;;;24.45;58.28
9839;BME280;4958;48.150;11.506;2023-09-18T11:21:34;94733.97;;;24.49;58.56
9839;BME280;4958;48.150;11.506;2023-09-18T11:24:02;94723.53;;;24.43;58.60
9839;BME280;4958;48.150;11.506;2023-09-18T11:26:30;94727.78;;;24.39;58.47
9839;BME280;4958;48.150;11.506;2023-09-18T11:28:59;94734.44;;;24.32;58.32
9839;BME280;4958;48.150;11.506;2023-09-18T11:34:23;94763.28;;;24.18;58.98
9839;BME280;4958;48.150;11.506;2023-09-18T11:36:52;94799.66;;;24.11;59.39
9839;BME280;4958;48.150;11.506;2023-09-18T11:39:35;94830.72;;;24.09;60.17
9839;BME280;4958;48.150;11.506;2023-09-18T11:42:12;94851.47;;;24.10;60.38
9839;BME280;4958;48.150;11.506;2023-09-18T11:44:39;94829.06;;;23.89;59.77
9839;BME280;4958;48.150;11.506;2023-09-18T11:47:12;94844.75;;;23.70;59.87
9839;BME280;4958;48.150;11.506;2023-09-18T11:49:47;94882.16;;;23.62;61.18
9839;BME280;4958;48.150;11.506;2023-09-18T11:52:18;94938.94;;;23.63;62.00
9839;BME280;4958;48.150;11.506;2023-09-18T11:54:46;94974.00;;;23.38;62.90
9839;BME280;4958;48.150;11.506;2023-09-18T11:57:17;94992.75;;;23.17;63.52
9839;BME280;4958;48.150;11.506;2023-09-18T11:59:43;95008.78;;;23.15;63.67
9839;BME280;4958;48.150;11.506;2023-09-18T12:02:11;95031.13;;;23.13;64.41
9839;BME280;4958;48.150;11.506;2023-09-18T12:04:47;95043.78;;;22.95;64.96
9839;BME280;4958;48.150;11.506;2023-09-18T12:07:13;95067.97;;;22.82;65.31
9839;BME280;4958;48.150;11.506;2023-09-18T12:09:40;95092.09;;;22.74;65.78
9839;BME280;4958;48.150;11.506;2023-09-18T12:12:06;95122.53;;;22.75;66.76
9839;BME280;4958;48.150;11.506;2023-09-18T12:14:34;95148.53;;;22.61;67.58
9839;BME280;4958;48.150;11.506;2023-09-18T12:17:02;95166.63;;;22.43;68.25
9839;BME280;4958;48.150;11.506;2023-09-18T12:19:29;95204.94;;;22.44;69.40
9839;BME280;4958;48.150;11.506;2023-09-18T12:21:57;95248.97;;;22.36;70.78
9839;BME280;4958;48.150;11.506;2023-09-18T12:24:24;95266.75;;;22.14;72.10
9839;BME280;4958;48.150;11.506;2023-09-18T12:26:52;95287.63;;;21.99;72.73
9839;BME280;4958;48.150;11.506;2023-09-18T12:29:19;95285.84;;;22.04;72.40
9839;BME280;4958;48.150;11.506;2023-09-18T12:31:45;95314.09;;;21.97;73.50
9839;BME280;4958;48.150;11.506;2023-09-18T12:34:16;95306.84;;;22.04;73.23
9839;BME280;4958;48.150;11.506;2023-09-18T12:36:43;95324.69;;;22.08;73.33
9839;BME280;4958;48.150;11.506;2023-09-18T12:39:13;95317.84;;;22.07;73.31
9839;BME280;4958;48.150;11.506;2023-09-18T12:41:41;95328.88;;;22.09;73.49
9839;BME280;4958;48.150;11.506;2023-09-18T12:44:08;95325.75;;;22.12;73.68
9839;BME280;4958;48.150;11.506;2023-09-18T12:46:35;95351.53;;;21.88;74.95
9839;BME280;4958;48.150;11.506;2023-09-18T12:49:18;95361.78;;;21.89;75.39
9839;BME280;4958;48.150;11.506;2023-09-18T12:51:54;95371.63;;;21.77;75.62
9839;BME280;4958;48.150;11.506;2023-09-18T12:54:36;95425.44;;;21.53;78.12
9839;BME280;4958;48.150;11.506;2023-09-18T12:57:04;95454.31;;;21.31;79.36
9839;BME280;4958;48.150;11.506;2023-09-18T12:59:31;95480.75;;;21.29;81.00
9839;BME280;4958;48.150;11.506;2023-09-18T13:01:58;95501.22;;;21.32;81.93
9839;BME280;4958;48.150;11.506;2023-09-18T13:04:24;95530.84;;;21.38;83.06
9839;BME280;4958;48.150;11.506;2023-09-18T13:07:03;95511.56;;;21.22;83.13
9839;BME280;4958;48.150;11.506;2023-09-18T13:09:30;95535.00;;;21.12;84.02
9839;BME280;4958;48.150;11.506;2023-09-18T13:11:57;95520.13;;;21.18;83.77
9839;BME280;4958;48.150;11.506;2023-09-18T13:14:24;95506.31;;;21.22;83.25
9839;BME280;4958;48.150;11.506;2023-09-18T13:16:52;95524.91;;;21.21;84.22